createdAt,value
2018-10-12T00:00:26.937Z,10.97
2018-10-12T00:02:54.685Z,11.13
2018-10-12T00:05:22.106Z,11.03
2018-10-12T00:07:49.538Z,11.60
2018-10-12T00:10:16.964Z,11.30
2018-10-12T00:12:44.403Z,10.67
2018-10-12T00:15:11.790Z,11.30
2018-10-12T00:17:39.233Z,10.63
2018-10-12T00:20:07.197Z,9.70
2018-10-12T00:22:34.691Z,9.17
2018-10-12T00:25:02.083Z,10.20
2018-10-12T00:27:29.447Z,10.80
2018-10-12T00:29:56.865Z,11.23
2018-10-12T00:32:24.284Z,11.57
2018-10-12T00:34:52.686Z,10.93
2018-10-12T00:37:20.005Z,10.83
2018-10-12T00:39:47.394Z,9.90
2018-10-12T00:42:14.735Z,9.50
2018-10-12T00:44:42.141Z,10.03
2018-10-12T00:47:09.554Z,10.00
2018-10-12T00:49:36.979Z,11.00
2018-10-12T00:52:04.312Z,10.27
2018-10-12T00:54:31.714Z,9.30
2018-10-12T00:56:59.079Z,9.73
2018-10-12T00:59:26.577Z,9.97
2018-10-12T01:01:53.991Z,11.33
2018-10-12T01:04:21.473Z,10.50
2018-10-12T01:06:48.911Z,11.27
2018-10-12T01:09:16.217Z,9.47
2018-10-12T01:11:43.705Z,11.53
2018-10-12T01:14:11.034Z,9.57
2018-10-12T01:16:38.440Z,9.63
2018-10-12T01:19:06.068Z,9.13
2018-10-12T01:21:33.567Z,8.73
2018-10-12T01:24:01.097Z,9.77
2018-10-12T01:26:28.501Z,10.57
2018-10-12T01:28:57.010Z,10.10
2018-10-12T01:31:25.498Z,10.23
2018-10-12T01:33:52.954Z,9.53
2018-10-12T01:36:20.298Z,9.33
2018-10-12T01:38:48.475Z,9.40
2018-10-12T01:41:15.952Z,9.50
2018-10-12T01:43:43.405Z,8.40
2018-10-12T01:46:10.900Z,8.50
2018-10-12T01:48:38.354Z,8.47
2018-10-12T01:51:06.146Z,9.10
2018-10-12T01:53:33.880Z,8.70
2018-10-12T01:56:02.521Z,8.93
2018-10-12T01:58:30.628Z,9.57
2018-10-12T02:00:58.113Z,8.93
2018-10-12T02:03:26.213Z,8.20
2018-10-12T02:05:53.638Z,8.80
2018-10-12T02:08:21.145Z,9.50
2018-10-12T02:10:48.558Z,10.23
2018-10-12T02:13:16.235Z,9.27
2018-10-12T02:15:43.704Z,8.50
2018-10-12T02:18:11.081Z,9.80
2018-10-12T02:20:38.604Z,9.07
2018-10-12T02:23:06.160Z,9.83
2018-10-12T02:25:33.527Z,8.67
2018-10-12T02:28:00.873Z,8.70
2018-10-12T02:30:28.333Z,9.07
2018-10-12T02:32:55.718Z,8.10
2018-10-12T02:35:23.150Z,8.83
2018-10-12T02:37:50.538Z,9.73
2018-10-12T02:40:17.944Z,9.00
2018-10-12T02:42:45.596Z,10.20
2018-10-12T02:45:13.043Z,9.03
2018-10-12T02:47:40.461Z,10.07
2018-10-12T02:50:07.942Z,8.83
2018-10-12T02:52:35.441Z,9.23
2018-10-12T02:55:02.905Z,8.37
2018-10-12T02:57:30.393Z,8.60
2018-10-12T02:59:57.836Z,9.00
2018-10-12T03:02:25.241Z,9.40
2018-10-12T03:04:52.652Z,8.40
2018-10-12T03:07:20.031Z,8.27
2018-10-12T03:09:47.729Z,8.20
2018-10-12T03:12:15.074Z,8.60
2018-10-12T03:14:42.506Z,7.10
2018-10-12T03:17:10.002Z,7.20
2018-10-12T03:19:37.954Z,7.90
2018-10-12T03:22:05.456Z,7.80
2018-10-12T03:24:32.949Z,7.87
2018-10-12T03:27:00.356Z,7.03
2018-10-12T03:29:27.802Z,8.13
2018-10-12T03:31:55.246Z,7.00
2018-10-12T03:34:22.650Z,7.43
2018-10-12T03:36:50.698Z,7.80
2018-10-12T03:39:18.062Z,5.90
2018-10-12T03:41:45.586Z,6.90
2018-10-12T03:44:13.029Z,6.67
2018-10-12T03:46:40.565Z,6.30
2018-10-12T03:49:07.924Z,5.63
2018-10-12T03:51:35.330Z,6.40
2018-10-12T03:54:02.758Z,6.97
2018-10-12T03:56:30.210Z,6.80
2018-10-12T03:58:57.638Z,6.40
2018-10-12T04:01:25.085Z,6.40
2018-10-12T04:03:52.510Z,7.00
2018-10-12T04:06:20.053Z,7.07
2018-10-12T04:08:47.393Z,6.70
2018-10-12T04:11:14.779Z,6.40
2018-10-12T04:13:42.286Z,7.53
2018-10-12T04:16:09.671Z,7.13
2018-10-12T04:18:37.198Z,6.63
2018-10-12T04:21:04.662Z,6.63
2018-10-12T04:23:32.065Z,6.50
2018-10-12T04:25:59.498Z,6.47
2018-10-12T04:28:26.867Z,6.93
2018-10-12T04:30:54.422Z,5.83
2018-10-12T04:33:21.871Z,7.00
2018-10-12T04:35:49.299Z,13.30
2018-10-12T04:38:16.820Z,16.17
2018-10-12T04:40:55.881Z,12.53
2018-10-12T04:43:23.813Z,20.60
2018-10-12T04:45:51.322Z,14.10
2018-10-12T04:48:18.821Z,11.00
2018-10-12T04:50:46.672Z,9.17
2018-10-12T04:53:14.260Z,7.20
2018-10-12T04:55:41.762Z,6.80
2018-10-12T04:58:09.324Z,7.20
2018-10-12T05:00:36.829Z,5.80
2018-10-12T05:03:05.396Z,8.13
2018-10-12T05:05:33.090Z,23.40
2018-10-12T05:08:00.679Z,18.93
2018-10-12T05:10:28.273Z,12.40
2018-10-12T05:12:55.693Z,10.40
2018-10-12T05:15:23.190Z,7.50
2018-10-12T05:17:50.685Z,7.10
2018-10-12T05:20:18.131Z,6.40
2018-10-12T05:22:45.612Z,6.53
2018-10-12T05:25:13.035Z,6.07
2018-10-12T05:27:40.509Z,5.30
2018-10-12T05:30:08.083Z,5.30
2018-10-12T05:32:35.511Z,5.37
2018-10-12T05:35:02.901Z,5.67
2018-10-12T05:37:30.348Z,4.53
2018-10-12T05:39:57.819Z,5.23
2018-10-12T05:42:25.276Z,4.47
2018-10-12T05:44:52.665Z,4.70
2018-10-12T05:47:20.090Z,4.70
2018-10-12T05:49:59.137Z,4.07
2018-10-12T05:52:27.310Z,4.60
2018-10-12T05:54:54.916Z,4.27
2018-10-12T05:57:22.587Z,4.63
2018-10-12T05:59:50.266Z,6.37
2018-10-12T06:02:17.901Z,5.70
2018-10-12T06:04:45.811Z,5.27
2018-10-12T06:07:13.280Z,5.57
2018-10-12T06:09:40.944Z,5.17
2018-10-12T06:12:08.436Z,5.83
2018-10-12T06:14:36.752Z,5.60
2018-10-12T06:17:04.474Z,5.33
2018-10-12T06:19:32.141Z,4.87
2018-10-12T06:21:59.612Z,5.20
2018-10-12T06:24:27.149Z,4.60
2018-10-12T06:26:54.709Z,5.37
2018-10-12T06:29:22.143Z,5.50
2018-10-12T06:31:49.656Z,4.87
2018-10-12T06:34:17.153Z,6.63
2018-10-12T06:36:44.614Z,5.53
2018-10-12T06:39:12.179Z,5.03
2018-10-12T06:41:39.674Z,5.20
2018-10-12T06:44:07.044Z,4.53
2018-10-12T06:46:34.563Z,5.57
2018-10-12T06:49:01.887Z,5.93
2018-10-12T06:51:29.751Z,5.40
2018-10-12T06:53:57.261Z,6.00
2018-10-12T06:56:25.094Z,5.70
2018-10-12T06:58:52.568Z,5.50
2018-10-12T07:01:20.115Z,5.90
2018-10-12T07:03:47.635Z,5.50
2018-10-12T07:06:15.418Z,5.80
2018-10-12T07:08:42.819Z,5.17
2018-10-12T07:11:10.323Z,5.90
2018-10-12T07:13:37.899Z,6.03
2018-10-12T07:16:05.362Z,5.63
2018-10-12T07:18:32.750Z,6.10
2018-10-12T07:21:00.289Z,5.60
2018-10-12T07:23:27.662Z,5.33
2018-10-12T07:25:55.184Z,5.47
2018-10-12T07:28:22.594Z,6.30
2018-10-12T07:30:49.987Z,5.80
2018-10-12T07:33:17.412Z,5.53
2018-10-12T07:35:44.863Z,5.37
2018-10-12T07:38:12.546Z,4.70
2018-10-12T07:40:39.812Z,4.90
2018-10-12T07:43:07.212Z,5.60
2018-10-12T07:45:34.651Z,4.70
2018-10-12T07:48:02.057Z,5.23
2018-10-12T07:50:29.543Z,5.17
2018-10-12T07:52:57.169Z,5.03
2018-10-12T07:55:24.607Z,6.00
2018-10-12T07:57:52.060Z,5.70
2018-10-12T08:00:19.599Z,5.40
2018-10-12T08:02:46.963Z,4.80
2018-10-12T08:05:14.367Z,4.47
2018-10-12T08:07:41.814Z,4.83
2018-10-12T08:10:09.236Z,4.73
2018-10-12T08:12:36.717Z,4.47
2018-10-12T08:15:04.214Z,4.87
2018-10-12T08:17:31.658Z,4.60
2018-10-12T08:19:59.216Z,4.43
2018-10-12T08:22:26.608Z,4.50
2018-10-12T08:24:54.145Z,4.07
2018-10-12T08:27:21.675Z,4.10
2018-10-12T08:29:49.126Z,3.83
2018-10-12T08:32:16.546Z,3.90
2018-10-12T08:34:44.014Z,4.30
2018-10-12T08:37:11.516Z,4.20
2018-10-12T08:39:38.977Z,4.00
2018-10-12T08:42:06.759Z,4.13
2018-10-12T08:44:34.195Z,3.60
2018-10-12T08:47:01.763Z,3.57
2018-10-12T08:49:29.171Z,3.87
2018-10-12T08:51:56.701Z,3.83
2018-10-12T08:54:24.150Z,4.00
2018-10-12T08:56:51.530Z,2.87
2018-10-12T08:59:18.934Z,3.10
2018-10-12T09:01:46.397Z,3.03
2018-10-12T09:04:13.854Z,2.90
2018-10-12T09:06:41.467Z,3.67
2018-10-12T09:09:09.909Z,3.07
2018-10-12T09:11:38.147Z,3.43
2018-10-12T09:14:06.592Z,3.53
2018-10-12T09:16:34.086Z,3.30
2018-10-12T09:19:01.487Z,3.20
2018-10-12T09:21:29.336Z,2.70
2018-10-12T09:23:56.748Z,2.90
2018-10-12T09:26:24.155Z,2.83
2018-10-12T09:28:51.526Z,3.53
2018-10-12T09:31:19.010Z,2.60
2018-10-12T09:33:46.432Z,2.77
2018-10-12T09:36:13.870Z,3.10
2018-10-12T09:38:41.392Z,2.90
2018-10-12T09:41:08.892Z,2.60
2018-10-12T09:43:36.357Z,2.50
2018-10-12T09:46:04.099Z,3.27
2018-10-12T09:48:31.408Z,2.10
2018-10-12T09:50:58.818Z,2.10
2018-10-12T09:53:26.185Z,2.80
2018-10-12T09:55:53.672Z,2.43
2018-10-12T09:58:21.135Z,2.60
2018-10-12T10:00:54.272Z,2.47
2018-10-12T10:03:27.611Z,2.80
2018-10-12T10:05:55.128Z,2.20
2018-10-12T10:08:22.723Z,2.10
2018-10-12T10:10:50.070Z,3.53
2018-10-12T10:13:17.681Z,15.53
2018-10-12T10:15:45.250Z,13.07
2018-10-12T10:18:12.742Z,11.87
2018-10-12T10:20:40.177Z,7.70
2018-10-12T10:23:07.641Z,7.40
2018-10-12T10:25:35.159Z,5.90
2018-10-12T10:28:02.756Z,5.07
2018-10-12T10:30:30.769Z,5.53
2018-10-12T10:32:58.230Z,4.97
2018-10-12T10:35:25.688Z,4.30
2018-10-12T10:37:53.091Z,4.07
2018-10-12T10:40:20.513Z,4.20
2018-10-12T10:42:47.944Z,3.70
2018-10-12T10:45:15.338Z,3.67
2018-10-12T10:47:42.875Z,3.10
2018-10-12T10:50:10.734Z,3.90
2018-10-12T10:52:38.247Z,3.37
2018-10-12T10:55:05.663Z,2.60
2018-10-12T10:57:33.144Z,3.27
2018-10-12T11:00:00.541Z,2.70
2018-10-12T11:02:27.982Z,2.63
2018-10-12T11:04:55.397Z,2.03
2018-10-12T11:07:22.796Z,2.27
2018-10-12T11:09:50.289Z,2.53
2018-10-12T11:12:17.755Z,2.20
2018-10-12T11:14:45.396Z,2.20
2018-10-12T11:17:12.762Z,2.70
2018-10-12T11:19:40.346Z,2.97
2018-10-12T11:22:07.835Z,2.17
2018-10-12T11:24:35.352Z,2.33
2018-10-12T11:27:02.823Z,2.47
2018-10-12T11:29:30.358Z,2.20
2018-10-12T11:31:57.848Z,2.20
2018-10-12T11:34:25.189Z,3.20
2018-10-12T11:36:52.584Z,6.10
2018-10-12T11:39:20.027Z,7.30
2018-10-12T11:41:48.039Z,11.90
2018-10-12T11:44:15.449Z,13.10
2018-10-12T11:46:43.053Z,10.03
2018-10-12T11:49:10.677Z,9.70
2018-10-12T11:51:38.117Z,7.37
2018-10-12T11:54:06.153Z,7.70
2018-10-12T11:56:33.656Z,6.50
2018-10-12T11:59:01.273Z,5.23
2018-10-12T12:01:28.682Z,4.50
2018-10-12T12:03:56.105Z,4.40
2018-10-12T12:06:23.775Z,3.80
2018-10-12T12:08:51.178Z,2.77
2018-10-12T12:11:18.890Z,3.17
2018-10-12T12:13:47.169Z,2.57
2018-10-12T12:16:14.884Z,2.30
2018-10-12T12:18:42.310Z,1.90
2018-10-12T12:21:09.970Z,1.63
2018-10-12T12:23:37.543Z,2.07
2018-10-12T12:26:05.648Z,2.37
2018-10-12T12:28:33.298Z,2.10
2018-10-12T12:31:00.880Z,2.13
2018-10-12T12:33:28.305Z,2.13
2018-10-12T12:35:56.784Z,2.20
2018-10-12T12:38:23.926Z,2.70
2018-10-12T12:40:51.589Z,1.90
2018-10-12T12:43:19.013Z,2.00
2018-10-12T12:45:46.432Z,1.70
2018-10-12T12:48:14.877Z,1.93
2018-10-12T12:50:42.850Z,1.93
2018-10-12T12:53:10.312Z,1.50
2018-10-12T12:55:37.709Z,1.77
2018-10-12T12:58:05.229Z,1.67
2018-10-12T13:00:32.716Z,1.40
2018-10-12T13:03:00.168Z,1.57
2018-10-12T13:05:27.688Z,5.70
2018-10-12T13:07:55.073Z,13.00
2018-10-12T13:10:22.591Z,8.07
2018-10-12T13:12:50.100Z,5.73
2018-10-12T13:15:18.145Z,4.47
2018-10-12T13:17:45.558Z,2.67
2018-10-12T13:20:12.972Z,2.50
2018-10-12T13:22:40.786Z,2.17
2018-10-12T13:25:08.526Z,2.47
2018-10-12T13:27:36.084Z,2.07
2018-10-12T13:30:03.848Z,1.90
2018-10-12T13:32:31.735Z,1.70
2018-10-12T13:35:00.116Z,2.10
2018-10-12T13:37:27.699Z,1.73
2018-10-12T13:39:55.966Z,1.70
2018-10-12T13:42:23.434Z,1.70
2018-10-12T13:44:50.821Z,1.90
2018-10-12T13:47:18.262Z,2.13
2018-10-12T13:49:45.665Z,14.17
2018-10-12T13:52:13.094Z,33.80
2018-10-12T13:54:40.635Z,15.77
2018-10-12T13:57:08.085Z,11.63
2018-10-12T13:59:35.646Z,7.73
2018-10-12T14:02:03.513Z,4.70
2018-10-12T14:04:31.386Z,3.70
2018-10-12T14:06:59.103Z,2.93
2018-10-12T14:09:27.228Z,2.47
2018-10-12T14:11:54.787Z,2.43
2018-10-12T14:14:22.232Z,1.97
2018-10-12T14:16:49.813Z,1.80
2018-10-12T14:19:17.442Z,2.30
2018-10-12T14:21:44.689Z,2.40
2018-10-12T14:24:12.094Z,1.80
2018-10-12T14:26:39.687Z,2.10
2018-10-12T14:29:07.164Z,1.57
2018-10-12T14:31:34.568Z,2.00
2018-10-12T14:34:02.249Z,1.70
2018-10-12T14:36:30.003Z,2.30
2018-10-12T14:38:57.509Z,2.07
2018-10-12T14:41:24.904Z,2.10
2018-10-12T14:43:52.436Z,1.80
2018-10-12T14:46:20.107Z,4.57
2018-10-12T14:48:47.569Z,8.50
2018-10-12T14:51:15.004Z,4.83
2018-10-12T14:53:42.452Z,2.83
2018-10-12T14:56:10.218Z,2.70
2018-10-12T14:58:37.707Z,2.83
2018-10-12T15:01:05.354Z,2.03
2018-10-12T15:03:32.757Z,2.23
2018-10-12T15:06:00.266Z,1.80
2018-10-12T15:08:27.858Z,2.00
2018-10-12T15:10:55.422Z,2.30
2018-10-12T15:13:22.856Z,2.00
2018-10-12T15:15:50.402Z,1.90
2018-10-12T15:18:17.852Z,1.70
2018-10-12T15:20:45.353Z,2.20
2018-10-12T15:23:12.928Z,2.00
2018-10-12T15:25:40.468Z,1.50
2018-10-12T15:28:08.323Z,1.80
2018-10-12T15:30:35.819Z,1.50
2018-10-12T15:33:03.253Z,1.37
2018-10-12T15:35:30.862Z,1.67
2018-10-12T15:37:58.319Z,2.03
2018-10-12T15:40:25.767Z,1.40
2018-10-12T15:42:53.182Z,1.70
2018-10-12T15:45:20.688Z,1.40
2018-10-12T15:47:48.139Z,1.70
2018-10-12T15:50:15.518Z,1.40
2018-10-12T15:52:43.218Z,1.47
2018-10-12T15:55:10.824Z,1.40
2018-10-12T15:57:38.319Z,1.67
2018-10-12T16:00:06.078Z,1.63
2018-10-12T16:02:33.731Z,1.97
2018-10-12T16:05:01.179Z,1.40
2018-10-12T16:07:28.658Z,1.23
2018-10-12T16:09:56.084Z,1.17
2018-10-12T16:12:24.572Z,1.40
2018-10-12T16:14:52.030Z,1.30
2018-10-12T16:17:19.437Z,1.60
2018-10-12T16:19:46.949Z,1.50
2018-10-12T16:22:14.600Z,1.50
2018-10-12T16:24:53.612Z,1.50
2018-10-12T16:27:21.168Z,1.47
2018-10-12T16:29:48.725Z,1.50
2018-10-12T16:32:16.157Z,1.70
2018-10-12T16:34:43.894Z,4.60
2018-10-12T16:37:11.398Z,6.97
2018-10-12T16:39:39.686Z,6.37
2018-10-12T16:42:07.563Z,4.63
2018-10-12T16:44:35.125Z,4.70
2018-10-12T16:47:02.747Z,4.47
2018-10-12T16:49:30.134Z,3.40
2018-10-12T16:51:57.748Z,3.30
2018-10-12T16:54:25.253Z,2.73
2018-10-12T17:10:08.024Z,2.00
2018-10-12T17:12:35.391Z,1.70
2018-10-12T17:15:03.044Z,1.80
2018-10-12T17:17:30.456Z,2.20
2018-10-12T17:19:57.918Z,1.60
2018-10-12T17:22:25.342Z,1.90
2018-10-12T17:24:52.797Z,1.90
2018-10-12T17:27:20.498Z,1.90
2018-10-12T17:29:48.121Z,1.90
2018-10-12T17:32:15.810Z,1.73
2018-10-12T17:34:43.176Z,3.30
2018-10-12T17:37:10.618Z,8.63
2018-10-12T17:39:38.166Z,8.13
2018-10-12T17:42:12.677Z,6.33
2018-10-12T17:44:40.485Z,5.30
2018-10-12T17:47:08.015Z,4.13
2018-10-12T17:49:35.831Z,4.00
2018-10-12T17:52:03.481Z,3.97
2018-10-12T17:54:30.890Z,3.10
2018-10-12T17:56:58.763Z,2.87
2018-10-12T17:59:26.347Z,2.93
2018-10-12T18:01:53.813Z,2.53
2018-10-12T18:04:21.513Z,2.60
2018-10-12T18:06:48.973Z,2.60
2018-10-12T18:09:16.542Z,2.20
2018-10-12T18:11:44.130Z,1.93
2018-10-12T18:14:11.670Z,2.20
2018-10-12T18:16:39.288Z,2.30
2018-10-12T18:19:06.883Z,2.57
2018-10-12T18:21:34.401Z,2.20
2018-10-12T18:24:02.066Z,1.97
2018-10-12T18:26:29.851Z,1.70
2018-10-12T18:28:59.418Z,2.23
2018-10-12T18:31:27.090Z,2.10
2018-10-12T18:33:54.502Z,2.03
2018-10-12T18:36:22.297Z,2.10
2018-10-12T18:38:50.043Z,2.30
2018-10-12T18:41:18.062Z,2.30
2018-10-12T18:43:45.530Z,1.87
2018-10-12T18:46:13.039Z,1.93
2018-10-12T18:48:40.631Z,2.27
2018-10-12T18:51:08.337Z,2.00
2018-10-12T18:53:35.981Z,2.10
2018-10-12T18:56:03.574Z,1.93
2018-10-12T18:58:31.019Z,2.03
2018-10-12T19:00:58.573Z,2.30
2018-10-12T19:03:26.370Z,2.07
2018-10-12T19:05:54.214Z,1.77
2018-10-12T19:08:21.751Z,1.97
2018-10-12T19:10:49.268Z,1.50
2018-10-12T19:13:16.670Z,2.00
2018-10-12T19:15:44.112Z,2.03
2018-10-12T19:18:11.618Z,2.10
2018-10-12T19:20:39.312Z,7.03
2018-10-12T19:23:06.789Z,21.60
2018-10-12T19:25:34.263Z,16.13
2018-10-12T19:28:01.774Z,14.27
2018-10-12T19:30:29.324Z,11.60
2018-10-12T19:32:56.747Z,8.43
2018-10-12T19:35:24.203Z,7.40
2018-10-12T19:37:51.822Z,5.27
2018-10-12T19:40:19.369Z,6.00
2018-10-12T19:42:46.781Z,4.00
2018-10-12T19:45:14.382Z,3.67
2018-10-12T19:47:41.966Z,2.60
2018-10-12T19:50:09.450Z,2.80
2018-10-12T19:52:36.850Z,2.40
2018-10-12T19:55:04.520Z,2.60
2018-10-12T19:57:32.114Z,2.30
2018-10-12T19:59:59.523Z,1.87
2018-10-12T20:02:26.897Z,2.23
2018-10-12T20:04:54.315Z,1.87
2018-10-12T20:07:21.815Z,1.80
2018-10-12T20:09:49.361Z,2.10
2018-10-12T20:12:16.868Z,1.80
2018-10-12T20:14:44.574Z,1.90
2018-10-12T20:17:11.982Z,2.00
2018-10-12T20:19:39.418Z,2.13
2018-10-12T20:22:08.193Z,2.37
2018-10-12T20:24:35.821Z,2.40
2018-10-12T20:27:03.216Z,2.10
2018-10-12T20:29:30.598Z,1.97
2018-10-12T20:31:58.059Z,2.37
2018-10-12T20:34:25.858Z,2.13
2018-10-12T20:36:53.409Z,2.10
2018-10-12T20:39:20.901Z,2.30
2018-10-12T20:41:48.429Z,2.50
2018-10-12T20:44:15.818Z,2.67
2018-10-12T20:46:44.038Z,2.40
2018-10-12T20:49:12.082Z,3.00
2018-10-12T20:51:39.571Z,2.30
2018-10-12T20:54:07.058Z,2.63
2018-10-12T20:56:34.464Z,2.50
2018-10-12T20:59:02.607Z,2.50
2018-10-12T21:01:30.236Z,2.70
2018-10-12T21:03:57.837Z,2.60
2018-10-12T21:06:26.149Z,2.73
2018-10-12T21:08:53.720Z,2.83
2018-10-12T21:11:21.125Z,2.23
2018-10-12T21:13:49.202Z,2.63
2018-10-12T21:16:16.623Z,2.53
2018-10-12T21:18:44.008Z,2.93
2018-10-12T21:21:11.437Z,2.80
2018-10-12T21:23:38.770Z,2.73
2018-10-12T21:26:06.281Z,2.93
2018-10-12T21:28:33.763Z,2.70
2018-10-12T21:31:01.191Z,3.40
2018-10-12T21:33:28.626Z,3.00
2018-10-12T21:35:56.012Z,2.97
2018-10-12T21:38:23.390Z,3.10
2018-10-12T21:40:50.873Z,3.87
2018-10-12T21:43:18.286Z,3.40
2018-10-12T21:45:45.657Z,2.80
2018-10-12T21:48:13.054Z,3.07
2018-10-12T21:50:40.572Z,2.90
2018-10-12T21:53:08.078Z,2.40
2018-10-12T21:55:35.600Z,2.30
2018-10-12T21:58:03.127Z,3.20
2018-10-12T22:00:30.572Z,3.07
2018-10-12T22:02:58.083Z,2.70
2018-10-12T22:05:25.477Z,3.03
2018-10-12T22:07:54.051Z,2.73
2018-10-12T22:10:21.559Z,3.20
2018-10-12T22:12:48.929Z,3.30
2018-10-12T22:15:16.398Z,3.80
2018-10-12T22:17:43.851Z,3.40
2018-10-12T22:20:11.855Z,3.70
2018-10-12T22:22:39.361Z,2.73
2018-10-12T22:25:06.826Z,3.60
2018-10-12T22:27:34.144Z,2.83
2018-10-12T22:30:01.653Z,2.50
2018-10-12T22:32:29.081Z,3.17
2018-10-12T22:34:56.593Z,3.00
2018-10-12T22:37:24.161Z,2.80
2018-10-12T22:39:51.555Z,3.50
2018-10-12T22:42:18.943Z,2.93
2018-10-12T22:44:46.379Z,2.57
2018-10-12T22:47:13.827Z,2.80
2018-10-12T22:49:41.441Z,2.97
2018-10-12T22:52:08.857Z,3.23
2018-10-12T22:54:36.547Z,3.50
2018-10-12T22:57:03.920Z,3.67
2018-10-12T22:59:31.292Z,3.90
2018-10-12T23:01:58.666Z,3.53
2018-10-12T23:04:26.580Z,2.87
2018-10-12T23:06:53.989Z,3.20
2018-10-12T23:09:21.375Z,2.90
2018-10-12T23:11:48.788Z,3.57
2018-10-12T23:14:16.945Z,3.20
2018-10-12T23:16:44.430Z,3.30
2018-10-12T23:19:11.832Z,3.40
2018-10-12T23:21:39.186Z,3.40
2018-10-12T23:24:06.753Z,3.10
2018-10-12T23:26:34.271Z,2.80
2018-10-12T23:29:01.662Z,2.67
2018-10-12T23:31:29.161Z,3.00
2018-10-12T23:34:02.745Z,3.50
2018-10-12T23:36:30.592Z,3.13
2018-10-12T23:38:58.420Z,3.03
2018-10-12T23:41:31.830Z,3.47
2018-10-12T23:43:59.217Z,2.97
2018-10-12T23:46:26.728Z,2.90
2018-10-12T23:48:54.358Z,3.30
2018-10-12T23:51:22.350Z,3.27
2018-10-12T23:53:49.773Z,2.80
2018-10-12T23:56:17.153Z,2.93
2018-10-12T23:58:44.773Z,3.07
